Time;durP1;ratioP1;P1;durP2;ratioP2;P2;SDS_P1;SDS_P2;PMS_P1;PMS_P2;Temp;Humidity;BMP_temperature;BMP_pressure;BME280_temperature;BME280_humidity;BME280_pressure;Samples;Min_cycle;Max_cycle;Signal;HPM_P1;HPM_P2
2022/08/29 00:05:01;;;;;;;9.85;2.47;;;14.70;99.90;;;;;;12486387;28;20099;-33
2022/08/29 00:11:05;;;;;;;6.90;2.63;;;14.60;99.90;;;;;;12477121;28;20517;-34
2022/08/29 00:17:07;;;;;;;7.45;2.03;;;14.60;99.90;;;;;;12483733;28;20088;-34
2022/08/29 00:23:10;;;;;;;8.43;2.30;;;14.50;99.90;;;;;;12490815;28;20094;-33
2022/08/29 00:29:12;;;;;;;6.93;2.03;;;14.50;99.90;;;;;;12485705;28;20095;-34
2022/08/29 00:35:17;;;;;;;7.63;2.22;;;14.50;99.90;;;;;;12484156;28;20087;-33
2022/08/29 00:41:19;;;;;;;7.13;2.47;;;14.50;99.90;;;;;;12483454;28;20053;-34
2022/08/29 00:47:28;;;;;;;7.90;2.80;;;14.40;99.90;;;;;;12485829;28;20053;-34
2022/08/29 00:53:37;;;;;;;6.03;2.50;;;14.40;99.90;;;;;;12481394;28;20045;-33
2022/08/29 00:59:40;;;;;;;6.43;2.50;;;14.40;99.90;;;;;;12482982;28;20049;-34
2022/08/29 01:05:42;;;;;;;5.28;2.30;;;14.40;99.90;;;;;;12482379;28;20045;-34
2022/08/29 01:18:06;;;;;;;10.27;2.80;;;14.20;99.90;;;;;;12482246;28;20123;-34
2022/08/29 01:24:14;;;;;;;8.38;2.30;;;14.30;99.90;;;;;;12481438;28;20502;-34
2022/08/29 01:30:16;;;;;;;6.35;2.80;;;14.20;99.90;;;;;;12478572;28;20041;-34
2022/08/29 01:36:31;;;;;;;8.00;2.72;;;14.10;99.90;;;;;;12477053;28;20068;-34
2022/08/29 01:42:33;;;;;;;8.25;2.25;;;14.00;99.90;;;;;;12485615;28;20038;-34
2022/08/29 01:48:40;;;;;;;6.80;2.47;;;14.00;99.90;;;;;;12483568;28;20120;-34
2022/08/29 01:54:44;;;;;;;9.70;2.88;;;14.00;99.90;;;;;;12467178;28;20130;-34
2022/08/29 02:00:46;;;;;;;7.28;2.50;;;14.10;99.90;;;;;;12482630;28;20053;-34
2022/08/29 02:06:48;;;;;;;6.78;2.85;;;14.10;99.90;;;;;;12486287;28;20417;-34
2022/08/29 02:12:52;;;;;;;10.77;3.45;;;14.10;99.90;;;;;;12481726;28;20608;-34
2022/08/29 02:18:55;;;;;;;11.27;2.30;;;13.90;99.90;;;;;;12486459;28;20057;-34
2022/08/29 02:24:56;;;;;;;9.02;3.75;;;14.00;99.90;;;;;;12480839;28;20046;-34
2022/08/29 02:30:58;;;;;;;9.30;2.45;;;14.20;99.90;;;;;;12478329;28;20111;-34
2022/08/29 02:37:00;;;;;;;10.68;2.58;;;14.20;99.90;;;;;;12486638;28;20427;-33
2022/08/29 02:43:03;;;;;;;10.27;2.60;;;14.20;99.90;;;;;;12492572;28;20045;-34
2022/08/29 02:49:04;;;;;;;8.70;2.78;;;14.10;99.90;;;;;;12497305;28;20141;-34
2022/08/29 02:55:08;;;;;;;10.52;2.95;;;13.90;99.90;;;;;;12498389;28;20042;-34
2022/08/29 03:01:11;;;;;;;9.98;2.63;;;13.90;99.90;;;;;;12496024;28;20519;-33
2022/08/29 03:07:13;;;;;;;7.68;2.20;;;14.00;99.90;;;;;;12499943;28;20420;-34
2022/08/29 03:13:16;;;;;;;8.55;2.33;;;14.10;99.90;;;;;;12501502;28;20439;-34
2022/08/29 03:19:18;;;;;;;7.17;2.83;;;14.20;99.90;;;;;;12496057;28;20114;-34
2022/08/29 03:25:22;;;;;;;8.50;2.42;;;14.10;99.90;;;;;;12499271;28;20037;-34
2022/08/29 03:31:24;;;;;;;8.45;2.55;;;14.10;99.90;;;;;;12500290;28;20041;-33
2022/08/29 03:37:26;;;;;;;9.48;3.40;;;14.20;99.90;;;;;;12494229;28;20187;-34
2022/08/29 03:43:28;;;;;;;9.30;2.40;;;14.10;99.90;;;;;;12496013;28;20473;-34
2022/08/29 03:49:29;;;;;;;8.30;3.13;;;14.10;99.90;;;;;;12499019;28;20042;-34
2022/08/29 03:55:31;;;;;;;8.50;2.78;;;14.00;99.90;;;;;;12489630;28;20451;-34
2022/08/29 04:01:33;;;;;;;8.02;2.70;;;13.80;99.90;;;;;;12488096;28;20095;-34
2022/08/29 04:07:41;;;;;;;8.20;2.38;;;13.80;99.90;;;;;;12487859;28;20159;-33
2022/08/29 04:13:43;;;;;;;10.63;3.03;;;13.80;99.90;;;;;;12486772;28;20386;-34
2022/08/29 04:19:45;;;;;;;8.80;2.80;;;13.80;99.90;;;;;;12489510;28;20128;-34
2022/08/29 04:25:47;;;;;;;6.70;2.78;;;13.80;99.90;;;;;;12488501;28;20072;-34
2022/08/29 04:31:50;;;;;;;8.43;3.47;;;13.70;99.90;;;;;;12490723;28;20053;-34
2022/08/29 04:37:52;;;;;;;9.80;2.80;;;13.80;99.90;;;;;;12487769;28;20433;-34
2022/08/29 04:43:54;;;;;;;8.07;2.85;;;13.80;99.90;;;;;;12483455;28;20076;-34
2022/08/29 04:49:56;;;;;;;10.00;3.00;;;13.80;99.90;;;;;;12485646;28;20045;-34
2022/08/29 04:56:05;;;;;;;9.88;2.70;;;13.80;99.90;;;;;;12485232;28;20500;-34
2022/08/29 05:02:07;;;;;;;7.78;2.85;;;13.80;99.90;;;;;;12480656;28;20076;-34
2022/08/29 05:08:09;;;;;;;7.40;2.55;;;14.00;99.90;;;;;;12483632;28;20569;-34
2022/08/29 05:14:10;;;;;;;10.02;2.97;;;13.80;99.90;;;;;;12504355;28;20041;-34
2022/08/29 05:20:13;;;;;;;7.60;2.72;;;13.90;99.90;;;;;;12485418;28;20132;-34
2022/08/29 05:26:14;;;;;;;7.80;3.85;;;13.50;99.90;;;;;;12485468;28;20102;-34
2022/08/29 05:32:18;;;;;;;8.32;3.03;;;13.60;99.90;;;;;;12488521;28;20053;-33
2022/08/29 05:38:20;;;;;;;8.70;2.77;;;13.70;99.90;;;;;;12488084;28;20042;-33
2022/08/29 05:44:22;;;;;;;10.00;3.03;;;13.80;99.90;;;;;;12484088;28;20098;-34
2022/08/29 05:50:24;;;;;;;9.30;3.40;;;13.80;99.90;;;;;;12486851;28;20455;-34
2022/08/29 05:56:26;;;;;;;7.60;3.00;;;14.00;99.90;;;;;;12481502;28;20037;-34
2022/08/29 06:02:28;;;;;;;7.68;2.85;;;14.10;99.90;;;;;;12481028;28;20493;-34
2022/08/29 06:08:30;;;;;;;8.90;3.50;;;14.10;99.90;;;;;;12483209;28;20048;-34
2022/08/29 06:14:31;;;;;;;8.00;2.88;;;14.10;99.90;;;;;;12479307;28;20038;-34
2022/08/29 06:20:36;;;;;;;8.38;3.40;;;14.20;99.90;;;;;;12481067;28;20049;-34
2022/08/29 06:26:37;;;;;;;10.52;3.40;;;14.20;99.90;;;;;;12482782;28;20049;-34
2022/08/29 06:32:39;;;;;;;7.50;2.70;;;14.20;99.90;;;;;;12487847;28;20477;-34
2022/08/29 06:38:41;;;;;;;12.77;2.90;;;14.30;99.90;;;;;;12483187;28;20046;-33
2022/08/29 06:44:44;;;;;;;11.50;3.20;;;14.30;99.90;;;;;;12483405;28;20061;-34
2022/08/29 06:50:45;;;;;;;8.05;3.10;;;14.40;99.90;;;;;;12481732;28;20447;-34
2022/08/29 06:56:48;;;;;;;8.63;3.92;;;14.40;99.90;;;;;;12476264;28;20443;-35
2022/08/29 07:02:51;;;;;;;7.80;2.97;;;14.60;99.90;;;;;;12481764;28;20038;-34
2022/08/29 07:08:54;;;;;;;7.93;3.30;;;14.60;99.90;;;;;;12482487;28;20045;-34
2022/08/29 07:14:57;;;;;;;11.02;3.28;;;14.90;99.90;;;;;;12473710;28;20490;-35
2022/08/29 07:20:58;;;;;;;9.73;3.60;;;14.70;99.90;;;;;;12477768;28;20049;-34
2022/08/29 07:27:00;;;;;;;14.32;3.20;;;14.80;99.90;;;;;;12480848;28;20463;-35
2022/08/29 07:33:02;;;;;;;11.18;3.10;;;15.00;99.90;;;;;;12490768;28;20125;-35
2022/08/29 07:39:09;;;;;;;8.60;2.70;;;15.20;99.90;;;;;;12487159;28;20352;-35
2022/08/29 07:45:11;;;;;;;10.63;3.20;;;15.20;99.90;;;;;;12489452;28;20517;-35
2022/08/29 07:51:19;;;;;;;11.07;3.13;;;15.40;99.90;;;;;;12489118;28;20041;-34
2022/08/29 07:57:21;;;;;;;10.95;3.45;;;15.50;99.90;;;;;;12485750;28;20091;-35
2022/08/29 08:03:23;;;;;;;8.00;3.40;;;15.70;99.90;;;;;;12487745;28;20049;-35
2022/08/29 08:09:25;;;;;;;17.55;3.42;;;15.70;99.90;;;;;;12479098;28;20045;-35
2022/08/29 08:15:27;;;;;;;11.10;3.33;;;15.90;99.90;;;;;;12486704;28;20120;-34
2022/08/29 08:21:29;;;;;;;9.50;3.30;;;16.10;99.90;;;;;;12483113;28;20041;-35
2022/08/29 08:27:31;;;;;;;10.57;2.95;;;16.30;99.90;;;;;;12483333;28;20191;-35
2022/08/29 08:33:38;;;;;;;10.10;3.20;;;16.30;99.90;;;;;;12489910;28;20045;-35
2022/08/29 08:39:41;;;;;;;6.68;2.83;;;16.40;99.90;;;;;;12483174;28;20095;-35
2022/08/29 08:45:43;;;;;;;10.07;3.05;;;16.40;99.90;;;;;;12470899;28;20049;-35
2022/08/29 08:51:52;;;;;;;7.40;3.13;;;16.60;99.90;;;;;;12479963;28;20049;-35
2022/08/29 08:58:05;;;;;;;13.27;3.40;;;16.60;99.90;;;;;;12484519;28;20057;-35
2022/08/29 09:04:38;;;;;;;8.52;3.33;;;16.70;99.90;;;;;;12480787;28;20072;-35
2022/08/29 09:10:58;;;;;;;9.60;3.30;;;16.80;99.90;;;;;;12498590;28;20073;-35
2022/08/29 09:17:03;;;;;;;6.32;3.03;;;16.90;99.90;;;;;;12473915;28;20052;-35
2022/08/29 09:23:38;;;;;;;11.35;3.50;;;17.10;99.90;;;;;;12480734;28;20054;-35
2022/08/29 09:29:40;;;;;;;8.75;2.92;;;17.40;99.90;;;;;;12499395;28;20110;-35
2022/08/29 09:35:50;;;;;;;8.25;3.13;;;17.50;99.90;;;;;;12484220;28;20045;-35
2022/08/29 09:41:56;;;;;;;9.60;3.45;;;17.60;99.90;;;;;;12485011;28;20548;-35
2022/08/29 09:48:16;;;;;;;11.18;3.45;;;17.60;99.90;;;;;;12479887;28;20080;-35
2022/08/29 09:54:30;;;;;;;13.90;4.10;;;17.70;99.90;;;;;;12476467;28;20045;-35
2022/08/29 10:00:36;;;;;;;8.52;3.13;;;17.90;99.90;;;;;;12484154;28;20050;-35
2022/08/29 10:06:39;;;;;;;11.40;3.78;;;18.10;99.90;;;;;;12485173;28;20061;-34
2022/08/29 10:13:07;;;;;;;14.25;3.92;;;18.20;99.90;;;;;;12478607;28;20390;-35
2022/08/29 10:19:14;;;;;;;12.60;3.58;;;18.40;99.90;;;;;;12478617;28;20390;-35
2022/08/29 10:25:35;;;;;;;11.23;3.58;;;18.20;99.90;;;;;;12481614;28;20489;-34
2022/08/29 10:31:47;;;;;;;10.75;3.47;;;18.70;99.90;;;;;;12479837;28;20076;-35
2022/08/29 10:37:52;;;;;;;7.00;3.30;;;18.70;99.90;;;;;;12476121;28;20107;-35
2022/08/29 10:44:17;;;;;;;12.98;4.15;;;18.60;99.90;;;;;;12484933;28;20054;-35
2022/08/29 10:50:37;;;;;;;9.88;4.10;;;18.30;99.90;;;;;;12463585;28;20053;-34
2022/08/29 10:56:47;;;;;;;8.70;3.30;;;18.20;99.90;;;;;;12482068;28;20045;-34
2022/08/29 11:03:27;;;;;;;8.25;3.17;;;18.10;99.90;;;;;;12486304;28;20462;-35
2022/08/29 11:09:53;;;;;;;6.68;3.17;;;18.10;99.90;;;;;;12488072;28;20127;-34
2022/08/29 11:16:08;;;;;;;7.15;2.85;;;18.50;99.90;;;;;;12491261;28;20455;-35
2022/08/29 11:22:20;;;;;;;10.95;4.00;;;18.70;99.90;;;;;;12490173;28;20037;-35
2022/08/29 11:28:31;;;;;;;8.45;3.13;;;19.00;99.90;;;;;;12493273;28;20099;-35
2022/08/29 11:34:47;;;;;;;9.13;3.15;;;19.20;99.90;;;;;;12488886;28;20045;-35
2022/08/29 11:40:55;;;;;;;8.25;3.00;;;19.40;99.90;;;;;;12488654;28;20092;-35
2022/08/29 11:47:43;;;;;;;9.13;2.97;;;19.50;99.90;;;;;;12485770;28;20048;-35
2022/08/29 11:53:46;;;;;;;10.63;3.47;;;19.80;99.90;;;;;;12481994;28;20498;-35
2022/08/29 11:59:48;;;;;;;9.63;3.80;;;20.20;99.90;;;;;;12489577;28;20049;-35
2022/08/29 12:05:56;;;;;;;7.43;2.80;;;20.40;99.90;;;;;;12487669;28;20099;-35
2022/08/29 12:12:01;;;;;;;7.53;2.95;;;20.40;99.90;;;;;;12485356;28;20570;-35
2022/08/29 12:18:12;;;;;;;8.05;2.60;;;20.30;99.90;;;;;;12466759;28;20061;-35
2022/08/29 12:24:28;;;;;;;5.65;2.58;;;20.90;99.90;;;;;;12440728;28;20078;-35
2022/08/29 12:30:38;;;;;;;6.10;2.50;;;21.40;99.90;;;;;;12441509;28;20515;-35
2022/08/29 12:36:51;;;;;;;6.72;2.60;;;21.00;99.90;;;;;;12436917;28;20096;-35
2022/08/29 12:43:16;;;;;;;6.50;2.47;;;21.10;99.90;;;;;;12431301;28;20046;-35
2022/08/29 12:49:29;;;;;;;13.38;3.80;;;21.40;99.90;;;;;;12434321;28;20421;-35
2022/08/29 12:55:38;;;;;;;5.13;2.37;;;21.10;99.90;;;;;;12431164;28;20111;-35
2022/08/29 13:01:47;;;;;;;8.23;2.97;;;20.60;99.90;;;;;;12431684;28;20076;-35
2022/08/29 13:08:08;;;;;;;6.70;2.72;;;20.60;99.90;;;;;;12429134;28;20049;-35
2022/08/29 13:14:14;;;;;;;10.35;2.88;;;20.50;99.90;;;;;;12425067;28;20053;-35
2022/08/29 13:20:41;;;;;;;5.57;2.70;;;20.50;99.90;;;;;;12467558;28;20057;-35
2022/08/29 13:26:57;;;;;;;6.32;2.25;;;20.60;99.90;;;;;;12478906;28;20063;-35
2022/08/29 13:33:18;;;;;;;6.03;2.75;;;20.60;99.90;;;;;;12486048;28;20128;-35
2022/08/29 13:39:39;;;;;;;6.82;2.47;;;20.80;99.90;;;;;;12479703;28;20449;-35
2022/08/29 13:45:43;;;;;;;8.55;2.65;;;21.30;99.90;;;;;;12482595;28;20061;-35
2022/08/29 13:51:45;;;;;;;9.95;2.42;;;21.70;99.90;;;;;;12479922;28;20049;-35
2022/08/29 13:57:51;;;;;;;6.80;2.53;;;22.10;99.90;;;;;;12486389;28;20050;-35
2022/08/29 14:03:54;;;;;;;6.78;2.63;;;21.90;99.90;;;;;;12480421;28;20448;-35
2022/08/29 14:09:56;;;;;;;8.10;2.35;;;21.70;99.90;;;;;;12482591;28;20053;-35
2022/08/29 14:15:58;;;;;;;8.00;2.50;;;21.80;99.90;;;;;;12478464;28;20037;-35
2022/08/29 14:22:01;;;;;;;5.95;2.20;;;21.90;99.90;;;;;;12431780;28;20045;-35
2022/08/29 14:28:03;;;;;;;6.47;2.70;;;21.70;99.90;;;;;;12437241;28;20524;-35
2022/08/29 14:34:05;;;;;;;6.85;2.60;;;21.60;99.90;;;;;;12436669;28;20097;-35
2022/08/29 14:40:08;;;;;;;4.88;2.30;;;21.80;99.90;;;;;;12442772;28;20103;-35
2022/08/29 14:46:11;;;;;;;5.88;2.30;;;21.80;99.90;;;;;;12393693;28;20053;-35
2022/08/29 14:52:13;;;;;;;7.93;2.25;;;22.00;99.90;;;;;;12433311;28;20133;-35
2022/08/29 14:58:15;;;;;;;7.57;2.87;;;22.20;99.90;;;;;;12438073;28;20177;-35
2022/08/29 15:04:18;;;;;;;4.90;2.35;;;22.00;99.90;;;;;;12434883;28;20379;-35
2022/08/29 15:10:37;;;;;;;4.72;1.85;;;22.00;99.90;;;;;;12432717;28;20140;-35
2022/08/29 15:16:39;;;;;;;7.45;2.20;;;21.80;99.90;;;;;;12442127;28;20084;-35
2022/08/29 15:22:40;;;;;;;4.28;2.17;;;22.50;99.90;;;;;;12482358;28;20042;-35
2022/08/29 15:28:42;;;;;;;8.20;2.22;;;23.20;99.90;;;;;;12482386;28;20049;-35
2022/08/29 15:34:44;;;;;;;4.97;1.88;;;23.70;99.90;;;;;;12476971;28;20052;-35
2022/08/29 15:40:47;;;;;;;8.38;2.33;;;23.90;99.90;;;;;;12478160;28;20064;-35
2022/08/29 15:46:49;;;;;;;5.03;2.20;;;23.90;99.90;;;;;;12477708;28;20053;-35
2022/08/29 15:52:52;;;;;;;3.95;2.08;;;23.70;99.90;;;;;;12483524;28;20060;-35
2022/08/29 15:58:54;;;;;;;6.22;2.42;;;23.40;99.90;;;;;;12484444;28;20050;-35
2022/08/29 16:04:56;;;;;;;7.22;2.33;;;23.10;99.90;;;;;;12484612;28;20504;-35
2022/08/29 16:10:58;;;;;;;5.35;2.30;;;23.40;99.90;;;;;;12486445;28;20518;-35
2022/08/29 16:17:01;;;;;;;5.53;2.00;;;23.40;99.90;;;;;;12499821;28;20523;-35
2022/08/29 16:23:03;;;;;;;6.05;2.40;;;23.50;99.90;;;;;;12487464;28;20156;-35
2022/08/29 16:29:07;;;;;;;6.22;2.35;;;23.40;99.90;;;;;;12488017;28;20053;-35
2022/08/29 16:35:09;;;;;;;;;;;23.50;99.90;;;;;;12486749;28;20048;-36
2022/08/29 16:41:17;;;;;;;4.45;1.85;;;23.50;99.90;;;;;;12486618;28;19921;-35
2022/08/29 16:47:19;;;;;;;6.70;2.05;;;23.30;99.90;;;;;;12485342;28;20093;-35
2022/08/29 16:53:21;;;;;;;7.88;2.40;;;23.50;99.90;;;;;;12483602;28;20072;-35
2022/08/29 16:59:23;;;;;;;6.95;2.25;;;23.10;99.90;;;;;;12485658;28;20489;-35
2022/08/29 17:05:25;;;;;;;8.45;2.20;;;23.00;99.90;;;;;;12479105;28;20132;-35
2022/08/29 17:17:29;;;;;;;5.70;2.00;;;22.50;99.90;;;;;;12476492;28;20096;-35
2022/08/29 17:23:32;;;;;;;6.13;2.33;;;22.30;99.90;;;;;;12484454;28;20053;-35
2022/08/29 17:29:34;;;;;;;5.80;2.20;;;22.00;99.90;;;;;;12485543;28;20079;-35
2022/08/29 17:35:36;;;;;;;4.78;1.90;;;21.80;99.90;;;;;;12479897;28;20448;-35
2022/08/29 17:41:38;;;;;;;6.47;2.35;;;21.70;99.90;;;;;;12486248;28;20721;-35
2022/08/29 17:47:40;;;;;;;3.92;1.75;;;21.60;99.90;;;;;;12478140;28;20046;-35
2022/08/29 17:53:43;;;;;;;3.60;1.75;;;21.40;99.90;;;;;;12483424;28;20058;-35
2022/08/29 17:59:45;;;;;;;6.43;2.03;;;21.30;99.90;;;;;;12478303;28;20049;-35
2022/08/29 18:05:47;;;;;;;4.28;1.70;;;21.20;99.90;;;;;;12477437;28;20214;-35
2022/08/29 18:11:51;;;;;;;6.40;1.73;;;21.10;99.90;;;;;;12484489;28;20139;-35
2022/08/29 18:17:53;;;;;;;2.78;1.50;;;21.00;99.90;;;;;;12478705;28;20058;-35
2022/08/29 18:23:56;;;;;;;3.03;1.67;;;20.80;99.90;;;;;;12479925;28;20042;-35
2022/08/29 18:30:00;;;;;;;5.27;1.47;;;20.70;99.90;;;;;;12479006;28;20459;-35
2022/08/29 18:36:05;;;;;;;2.72;1.52;;;20.60;99.90;;;;;;12481327;28;20046;-35
2022/08/29 18:42:07;;;;;;;5.13;1.85;;;20.40;99.90;;;;;;12477883;28;20120;-35
2022/08/29 18:48:29;;;;;;;3.65;1.33;;;20.30;99.90;;;;;;12482107;28;20065;-35
2022/08/29 18:54:32;;;;;;;4.43;1.60;;;20.30;99.90;;;;;;12479210;28;20075;-35
2022/08/29 19:00:35;;;;;;;4.63;1.30;;;20.10;99.90;;;;;;12475575;28;20045;-35
2022/08/29 19:06:37;;;;;;;4.67;1.37;;;20.00;99.90;;;;;;12480172;28;20550;-35
2022/08/29 19:12:39;;;;;;;3.42;1.40;;;19.90;99.90;;;;;;12483159;28;20501;-35
2022/08/29 19:18:41;;;;;;;4.93;1.55;;;19.80;99.90;;;;;;12473817;28;21511;-35
2022/08/29 19:24:42;;;;;;;5.40;1.55;;;19.70;99.90;;;;;;12488449;28;20049;-35
2022/08/29 19:30:46;;;;;;;4.30;1.77;;;19.60;99.90;;;;;;12491520;28;20291;-35
2022/08/29 19:36:49;;;;;;;4.03;1.40;;;19.60;99.90;;;;;;12491434;28;20046;-35
2022/08/29 19:42:52;;;;;;;;;;;19.50;99.90;;;;;;12486908;28;20099;-35
2022/08/29 19:48:54;;;;;;;2.97;1.20;;;19.40;99.90;;;;;;12484222;28;19967;-35
2022/08/29 19:54:58;;;;;;;4.20;1.60;;;19.40;99.90;;;;;;12486688;28;20046;-35
2022/08/29 20:01:03;;;;;;;3.95;1.40;;;19.40;99.90;;;;;;12482444;28;20054;-35
2022/08/29 20:07:07;;;;;;;2.83;1.10;;;19.20;99.90;;;;;;12477620;28;20100;-35
2022/08/29 20:13:09;;;;;;;4.22;1.40;;;19.10;99.90;;;;;;12490450;28;20053;-35
2022/08/29 20:19:11;;;;;;;4.03;1.30;;;19.00;99.90;;;;;;12482160;28;20090;-36
2022/08/29 20:25:14;;;;;;;2.03;1.30;;;19.00;99.90;;;;;;12486250;28;20200;-35
2022/08/29 20:31:17;;;;;;;4.93;1.23;;;19.00;99.90;;;;;;12487753;28;20041;-35
2022/08/29 20:37:21;;;;;;;4.10;1.30;;;18.90;99.90;;;;;;12485888;28;20520;-35
2022/08/29 20:43:23;;;;;;;3.75;1.25;;;18.80;99.90;;;;;;12487900;28;20045;-35
2022/08/29 20:49:25;;;;;;;3.60;1.17;;;18.70;99.90;;;;;;12478630;28;20054;-34
2022/08/29 20:55:27;;;;;;;4.43;1.10;;;18.60;99.90;;;;;;12486734;28;20087;-35
2022/08/29 21:01:29;;;;;;;3.42;1.20;;;18.60;99.90;;;;;;12483142;28;20187;-35
2022/08/29 21:07:31;;;;;;;3.17;1.00;;;18.50;99.90;;;;;;12483469;28;20086;-34
2022/08/29 21:13:33;;;;;;;3.70;1.30;;;18.40;99.90;;;;;;12483190;28;20517;-35
2022/08/29 21:19:36;;;;;;;4.70;1.08;;;18.30;99.90;;;;;;12484221;28;20081;-34
2022/08/29 21:25:39;;;;;;;2.95;0.90;;;18.10;99.90;;;;;;12480842;28;20346;-35
2022/08/29 21:31:41;;;;;;;1.80;0.90;;;18.00;99.90;;;;;;12484571;28;20053;-34
2022/08/29 21:37:43;;;;;;;1.95;0.93;;;17.80;99.90;;;;;;12481484;28;20048;-35
2022/08/29 21:43:45;;;;;;;4.40;1.15;;;17.90;99.90;;;;;;12477995;28;20152;-34
2022/08/29 21:49:50;;;;;;;4.82;1.85;;;17.70;99.90;;;;;;12480410;28;20535;-34
2022/08/29 21:55:52;;;;;;;4.82;1.27;;;17.60;99.90;;;;;;12482856;28;20049;-34
2022/08/29 22:01:54;;;;;;;1.75;1.00;;;17.50;99.90;;;;;;12485038;28;20420;-35
2022/08/29 22:07:56;;;;;;;2.03;1.02;;;17.40;99.90;;;;;;12482622;28;20102;-34
2022/08/29 22:13:58;;;;;;;2.92;1.10;;;17.40;99.90;;;;;;12479220;28;20330;-34
2022/08/29 22:20:00;;;;;;;2.13;1.00;;;17.30;99.90;;;;;;12453884;28;20099;-34
2022/08/29 22:26:02;;;;;;;1.98;1.00;;;17.40;99.90;;;;;;12428965;28;20484;-34
2022/08/29 22:32:04;;;;;;;2.47;1.20;;;17.30;99.90;;;;;;12432603;28;20096;-34
2022/08/29 22:38:06;;;;;;;5.60;1.50;;;17.20;99.90;;;;;;12433263;28;20468;-34
2022/08/29 22:44:08;;;;;;;2.63;1.30;;;17.00;99.90;;;;;;12437459;28;20548;-34
2022/08/29 22:50:30;;;;;;;3.03;1.10;;;16.90;99.90;;;;;;12436042;28;20049;-35
2022/08/29 22:56:35;;;;;;;2.83;1.00;;;16.90;99.90;;;;;;12441004;28;20107;-34
2022/08/29 23:02:37;;;;;;;2.88;1.10;;;17.10;99.90;;;;;;12454320;28;20042;-34
2022/08/29 23:08:39;;;;;;;2.75;1.10;;;16.90;99.90;;;;;;12448999;28;20053;-34
2022/08/29 23:14:45;;;;;;;2.83;1.00;;;16.80;99.90;;;;;;12439627;28;20107;-34
2022/08/29 23:20:47;;;;;;;2.80;1.30;;;16.60;99.90;;;;;;12481819;28;20049;-34
2022/08/29 23:26:50;;;;;;;1.95;1.05;;;16.60;99.90;;;;;;12488821;28;20052;-34
2022/08/29 23:32:51;;;;;;;2.85;1.10;;;16.60;99.90;;;;;;12490443;28;20042;-34
2022/08/29 23:38:53;;;;;;;4.28;1.23;;;16.30;99.90;;;;;;12507036;28;20099;-34
2022/08/29 23:44:56;;;;;;;4.45;1.13;;;16.20;99.90;;;;;;12487486;28;20049;-34
2022/08/29 23:51:03;;;;;;;4.88;1.70;;;16.20;99.90;;;;;;12488635;28;20053;-34
2022/08/29 23:57:04;;;;;;;2.65;1.10;;;16.20;99.90;;;;;;12487691;28;20041;-33
